sensor_id;sensor_type;location;lat;lon;timestamp;P1;durP1;ratioP1;P2;durP2;ratioP2
19733;SDS011;10018;51.230;7.860;2023-04-15T00:00:13;11.73;;;6.80;;
19733;SDS011;10018;51.230;7.860;2023-04-15T00:02:39;13.87;;;6.90;;
19733;SDS011;10018;51.230;7.860;2023-04-15T00:05:05;14.83;;;7.23;;
19733;SDS011;10018;51.230;7.860;2023-04-15T00:07:31;16.10;;;7.00;;
19733;SDS011;10018;51.230;7.860;2023-04-15T00:09:59;9.63;;;6.53;;
19733;SDS011;10018;51.230;7.860;2023-04-15T00:12:26;14.13;;;7.27;;
19733;SDS011;10018;51.230;7.860;2023-04-15T00:14:52;12.00;;;6.63;;
19733;SDS011;10018;51.230;7.860;2023-04-15T00:17:18;12.87;;;7.70;;
19733;SDS011;10018;51.230;7.860;2023-04-15T00:19:44;18.13;;;8.57;;
19733;SDS011;10018;51.230;7.860;2023-04-15T00:22:10;14.93;;;7.60;;
19733;SDS011;10018;51.230;7.860;2023-04-15T00:24:36;12.93;;;7.27;;
19733;SDS011;10018;51.230;7.860;2023-04-15T00:27:04;10.13;;;6.63;;
19733;SDS011;10018;51.230;7.860;2023-04-15T00:29:30;14.27;;;7.70;;
19733;SDS011;10018;51.230;7.860;2023-04-15T00:31:56;13.77;;;7.73;;
19733;SDS011;10018;51.230;7.860;2023-04-15T00:34:22;16.57;;;7.90;;
19733;SDS011;10018;51.230;7.860;2023-04-15T00:36:50;14.33;;;7.83;;
19733;SDS011;10018;51.230;7.860;2023-04-15T00:39:16;16.20;;;7.17;;
19733;SDS011;10018;51.230;7.860;2023-04-15T00:41:42;15.83;;;7.30;;
19733;SDS011;10018;51.230;7.860;2023-04-15T00:44:08;11.33;;;7.07;;
19733;SDS011;10018;51.230;7.860;2023-04-15T00:46:38;16.57;;;7.87;;
19733;SDS011;10018;51.230;7.860;2023-04-15T00:49:05;11.17;;;6.83;;
19733;SDS011;10018;51.230;7.860;2023-04-15T00:51:32;18.60;;;7.83;;
19733;SDS011;10018;51.230;7.860;2023-04-15T00:54:00;12.27;;;8.10;;
19733;SDS011;10018;51.230;7.860;2023-04-15T00:56:29;14.03;;;7.47;;
19733;SDS011;10018;51.230;7.860;2023-04-15T00:58:55;16.73;;;8.40;;
19733;SDS011;10018;51.230;7.860;2023-04-15T01:01:23;11.90;;;7.20;;
19733;SDS011;10018;51.230;7.860;2023-04-15T01:03:50;15.90;;;8.03;;
19733;SDS011;10018;51.230;7.860;2023-04-15T01:06:16;13.33;;;6.90;;
19733;SDS011;10018;51.230;7.860;2023-04-15T01:08:42;12.83;;;7.13;;
19733;SDS011;10018;51.230;7.860;2023-04-15T01:11:09;13.50;;;7.00;;
19733;SDS011;10018;51.230;7.860;2023-04-15T01:13:37;13.97;;;7.30;;
19733;SDS011;10018;51.230;7.860;2023-04-15T01:16:02;14.87;;;7.23;;
19733;SDS011;10018;51.230;7.860;2023-04-15T01:18:29;12.43;;;6.87;;
19733;SDS011;10018;51.230;7.860;2023-04-15T01:20:55;13.97;;;7.10;;
19733;SDS011;10018;51.230;7.860;2023-04-15T01:23:21;14.33;;;7.10;;
19733;SDS011;10018;51.230;7.860;2023-04-15T01:25:47;14.90;;;7.90;;
19733;SDS011;10018;51.230;7.860;2023-04-15T01:28:14;15.33;;;7.73;;
19733;SDS011;10018;51.230;7.860;2023-04-15T01:30:40;12.13;;;6.97;;
19733;SDS011;10018;51.230;7.860;2023-04-15T01:33:06;15.80;;;7.87;;
19733;SDS011;10018;51.230;7.860;2023-04-15T01:35:31;12.27;;;7.37;;
19733;SDS011;10018;51.230;7.860;2023-04-15T01:38:07;15.20;;;6.83;;
19733;SDS011;10018;51.230;7.860;2023-04-15T01:40:34;14.33;;;7.13;;
19733;SDS011;10018;51.230;7.860;2023-04-15T01:43:00;12.87;;;7.10;;
19733;SDS011;10018;51.230;7.860;2023-04-15T01:45:26;14.43;;;7.93;;
19733;SDS011;10018;51.230;7.860;2023-04-15T01:47:52;13.93;;;7.90;;
19733;SDS011;10018;51.230;7.860;2023-04-15T01:50:18;17.10;;;8.23;;
19733;SDS011;10018;51.230;7.860;2023-04-15T01:52:44;13.83;;;7.70;;
19733;SDS011;10018;51.230;7.860;2023-04-15T01:55:14;15.00;;;8.10;;
19733;SDS011;10018;51.230;7.860;2023-04-15T01:57:40;15.50;;;7.80;;
19733;SDS011;10018;51.230;7.860;2023-04-15T02:00:05;13.97;;;7.93;;
19733;SDS011;10018;51.230;7.860;2023-04-15T02:02:32;13.53;;;7.00;;
19733;SDS011;10018;51.230;7.860;2023-04-15T02:04:58;13.10;;;8.00;;
19733;SDS011;10018;51.230;7.860;2023-04-15T02:07:23;13.60;;;7.90;;
19733;SDS011;10018;51.230;7.860;2023-04-15T02:09:49;16.90;;;8.23;;
19733;SDS011;10018;51.230;7.860;2023-04-15T02:12:15;13.83;;;8.03;;
19733;SDS011;10018;51.230;7.860;2023-04-15T02:14:40;14.10;;;7.03;;
19733;SDS011;10018;51.230;7.860;2023-04-15T02:17:06;14.17;;;8.40;;
19733;SDS011;10018;51.230;7.860;2023-04-15T02:19:35;15.57;;;8.80;;
19733;SDS011;10018;51.230;7.860;2023-04-15T02:22:01;14.03;;;8.00;;
19733;SDS011;10018;51.230;7.860;2023-04-15T02:24:27;13.53;;;7.53;;
19733;SDS011;10018;51.230;7.860;2023-04-15T02:26:54;12.83;;;7.77;;
19733;SDS011;10018;51.230;7.860;2023-04-15T02:29:20;14.30;;;8.50;;
19733;SDS011;10018;51.230;7.860;2023-04-15T02:31:46;16.20;;;8.30;;
19733;SDS011;10018;51.230;7.860;2023-04-15T02:34:12;15.03;;;8.53;;
19733;SDS011;10018;51.230;7.860;2023-04-15T02:36:38;15.67;;;8.43;;
19733;SDS011;10018;51.230;7.860;2023-04-15T02:39:04;15.80;;;9.10;;
19733;SDS011;10018;51.230;7.860;2023-04-15T02:41:30;15.23;;;8.53;;
19733;SDS011;10018;51.230;7.860;2023-04-15T02:43:56;15.07;;;8.20;;
19733;SDS011;10018;51.230;7.860;2023-04-15T02:46:21;15.27;;;7.80;;
19733;SDS011;10018;51.230;7.860;2023-04-15T02:48:48;17.53;;;8.67;;
19733;SDS011;10018;51.230;7.860;2023-04-15T02:51:17;15.23;;;8.63;;
19733;SDS011;10018;51.230;7.860;2023-04-15T02:53:44;16.97;;;8.50;;
19733;SDS011;10018;51.230;7.860;2023-04-15T02:56:10;15.37;;;8.60;;
19733;SDS011;10018;51.230;7.860;2023-04-15T02:58:36;16.73;;;8.87;;
19733;SDS011;10018;51.230;7.860;2023-04-15T03:01:03;16.63;;;8.43;;
19733;SDS011;10018;51.230;7.860;2023-04-15T03:03:28;15.60;;;8.50;;
19733;SDS011;10018;51.230;7.860;2023-04-15T03:05:54;15.33;;;8.50;;
19733;SDS011;10018;51.230;7.860;2023-04-15T03:08:20;13.03;;;8.17;;
19733;SDS011;10018;51.230;7.860;2023-04-15T03:10:46;14.73;;;8.40;;
19733;SDS011;10018;51.230;7.860;2023-04-15T03:13:12;20.07;;;8.57;;
19733;SDS011;10018;51.230;7.860;2023-04-15T03:15:38;13.70;;;8.07;;
19733;SDS011;10018;51.230;7.860;2023-04-15T03:18:03;12.20;;;8.07;;
19733;SDS011;10018;51.230;7.860;2023-04-15T03:20:29;16.90;;;8.33;;
19733;SDS011;10018;51.230;7.860;2023-04-15T03:22:56;17.67;;;8.40;;
19733;SDS011;10018;51.230;7.860;2023-04-15T03:25:22;13.97;;;8.17;;
19733;SDS011;10018;51.230;7.860;2023-04-15T03:27:50;14.40;;;8.47;;
19733;SDS011;10018;51.230;7.860;2023-04-15T03:30:17;13.67;;;8.00;;
19733;SDS011;10018;51.230;7.860;2023-04-15T03:32:43;14.27;;;8.17;;
19733;SDS011;10018;51.230;7.860;2023-04-15T03:35:08;16.03;;;8.63;;
19733;SDS011;10018;51.230;7.860;2023-04-15T03:37:34;15.07;;;8.10;;
19733;SDS011;10018;51.230;7.860;2023-04-15T03:39:59;14.07;;;8.13;;
19733;SDS011;10018;51.230;7.860;2023-04-15T03:42:25;13.00;;;8.30;;
19733;SDS011;10018;51.230;7.860;2023-04-15T03:44:51;12.77;;;7.43;;
19733;SDS011;10018;51.230;7.860;2023-04-15T03:47:17;15.73;;;8.67;;
19733;SDS011;10018;51.230;7.860;2023-04-15T03:49:42;15.47;;;9.10;;
19733;SDS011;10018;51.230;7.860;2023-04-15T03:52:08;14.03;;;8.20;;
19733;SDS011;10018;51.230;7.860;2023-04-15T03:54:33;18.37;;;8.20;;
19733;SDS011;10018;51.230;7.860;2023-04-15T03:56:59;17.80;;;8.93;;
19733;SDS011;10018;51.230;7.860;2023-04-15T03:59:25;18.63;;;8.40;;
19733;SDS011;10018;51.230;7.860;2023-04-15T04:01:51;16.93;;;8.43;;
19733;SDS011;10018;51.230;7.860;2023-04-15T04:04:16;17.23;;;8.83;;
19733;SDS011;10018;51.230;7.860;2023-04-15T04:06:42;21.70;;;9.13;;
19733;SDS011;10018;51.230;7.860;2023-04-15T04:09:07;18.07;;;8.97;;
19733;SDS011;10018;51.230;7.860;2023-04-15T04:11:33;18.53;;;8.83;;
19733;SDS011;10018;51.230;7.860;2023-04-15T04:14:01;14.10;;;8.37;;
19733;SDS011;10018;51.230;7.860;2023-04-15T04:16:27;15.93;;;8.67;;
19733;SDS011;10018;51.230;7.860;2023-04-15T04:18:54;15.27;;;8.63;;
19733;SDS011;10018;51.230;7.860;2023-04-15T04:21:20;17.90;;;8.73;;
19733;SDS011;10018;51.230;7.860;2023-04-15T04:23:48;14.30;;;8.30;;
19733;SDS011;10018;51.230;7.860;2023-04-15T04:26:14;15.57;;;8.10;;
19733;SDS011;10018;51.230;7.860;2023-04-15T04:28:40;16.17;;;9.23;;
19733;SDS011;10018;51.230;7.860;2023-04-15T04:31:06;19.40;;;11.60;;
19733;SDS011;10018;51.230;7.860;2023-04-15T04:33:34;17.70;;;11.00;;
19733;SDS011;10018;51.230;7.860;2023-04-15T04:35:59;19.97;;;10.80;;
19733;SDS011;10018;51.230;7.860;2023-04-15T04:38:25;18.00;;;10.00;;
19733;SDS011;10018;51.230;7.860;2023-04-15T04:40:50;18.10;;;10.50;;
19733;SDS011;10018;51.230;7.860;2023-04-15T04:43:16;19.67;;;9.50;;
19733;SDS011;10018;51.230;7.860;2023-04-15T04:45:42;18.97;;;9.80;;
19733;SDS011;10018;51.230;7.860;2023-04-15T04:48:07;16.03;;;10.43;;
19733;SDS011;10018;51.230;7.860;2023-04-15T04:50:34;28.60;;;14.83;;
19733;SDS011;10018;51.230;7.860;2023-04-15T04:53:00;23.57;;;13.83;;
19733;SDS011;10018;51.230;7.860;2023-04-15T04:55:26;20.50;;;11.57;;
19733;SDS011;10018;51.230;7.860;2023-04-15T04:57:52;19.27;;;10.60;;
19733;SDS011;10018;51.230;7.860;2023-04-15T05:00:17;17.63;;;10.80;;
19733;SDS011;10018;51.230;7.860;2023-04-15T05:02:43;16.27;;;9.90;;
19733;SDS011;10018;51.230;7.860;2023-04-15T05:05:09;19.43;;;9.37;;
19733;SDS011;10018;51.230;7.860;2023-04-15T05:07:36;17.60;;;9.30;;
19733;SDS011;10018;51.230;7.860;2023-04-15T05:10:02;19.70;;;9.83;;
19733;SDS011;10018;51.230;7.860;2023-04-15T05:12:28;21.03;;;10.20;;
19733;SDS011;10018;51.230;7.860;2023-04-15T05:14:53;17.60;;;9.93;;
19733;SDS011;10018;51.230;7.860;2023-04-15T05:17:21;20.57;;;10.50;;
19733;SDS011;10018;51.230;7.860;2023-04-15T05:19:49;22.60;;;10.90;;
19733;SDS011;10018;51.230;7.860;2023-04-15T05:22:17;19.77;;;10.50;;
19733;SDS011;10018;51.230;7.860;2023-04-15T05:24:43;18.17;;;10.10;;
19733;SDS011;10018;51.230;7.860;2023-04-15T05:27:08;16.10;;;9.13;;
19733;SDS011;10018;51.230;7.860;2023-04-15T05:29:36;17.80;;;9.83;;
19733;SDS011;10018;51.230;7.860;2023-04-15T05:32:04;13.90;;;8.50;;
19733;SDS011;10018;51.230;7.860;2023-04-15T05:34:30;16.00;;;8.83;;
19733;SDS011;10018;51.230;7.860;2023-04-15T05:36:56;16.30;;;9.93;;
19733;SDS011;10018;51.230;7.860;2023-04-15T05:39:21;20.60;;;10.50;;
19733;SDS011;10018;51.230;7.860;2023-04-15T05:41:47;18.20;;;10.40;;
19733;SDS011;10018;51.230;7.860;2023-04-15T05:44:12;20.23;;;10.50;;
19733;SDS011;10018;51.230;7.860;2023-04-15T05:46:38;19.10;;;9.83;;
19733;SDS011;10018;51.230;7.860;2023-04-15T05:49:03;20.43;;;9.97;;
19733;SDS011;10018;51.230;7.860;2023-04-15T05:51:29;18.33;;;10.00;;
19733;SDS011;10018;51.230;7.860;2023-04-15T05:53:55;16.63;;;10.13;;
19733;SDS011;10018;51.230;7.860;2023-04-15T05:56:23;22.47;;;10.50;;
19733;SDS011;10018;51.230;7.860;2023-04-15T05:58:51;16.87;;;9.83;;
19733;SDS011;10018;51.230;7.860;2023-04-15T06:01:16;17.60;;;10.43;;
19733;SDS011;10018;51.230;7.860;2023-04-15T06:03:42;17.47;;;10.30;;
19733;SDS011;10018;51.230;7.860;2023-04-15T06:06:10;20.53;;;10.87;;
19733;SDS011;10018;51.230;7.860;2023-04-15T06:08:35;21.87;;;11.73;;
19733;SDS011;10018;51.230;7.860;2023-04-15T06:11:01;19.53;;;11.70;;
19733;SDS011;10018;51.230;7.860;2023-04-15T06:13:26;22.13;;;11.80;;
19733;SDS011;10018;51.230;7.860;2023-04-15T06:15:53;17.03;;;10.37;;
19733;SDS011;10018;51.230;7.860;2023-04-15T06:18:18;17.00;;;10.37;;
19733;SDS011;10018;51.230;7.860;2023-04-15T06:20:44;21.87;;;11.10;;
19733;SDS011;10018;51.230;7.860;2023-04-15T06:23:10;17.37;;;10.20;;
19733;SDS011;10018;51.230;7.860;2023-04-15T06:25:36;19.63;;;10.43;;
19733;SDS011;10018;51.230;7.860;2023-04-15T06:28:01;17.73;;;10.47;;
19733;SDS011;10018;51.230;7.860;2023-04-15T06:30:27;21.27;;;11.67;;
19733;SDS011;10018;51.230;7.860;2023-04-15T06:32:53;19.40;;;10.97;;
19733;SDS011;10018;51.230;7.860;2023-04-15T06:35:19;16.90;;;11.07;;
19733;SDS011;10018;51.230;7.860;2023-04-15T06:37:45;17.57;;;10.90;;
19733;SDS011;10018;51.230;7.860;2023-04-15T06:40:11;19.03;;;11.20;;
19733;SDS011;10018;51.230;7.860;2023-04-15T06:42:36;20.73;;;10.73;;
19733;SDS011;10018;51.230;7.860;2023-04-15T06:45:02;21.37;;;11.50;;
19733;SDS011;10018;51.230;7.860;2023-04-15T06:47:28;18.67;;;11.50;;
19733;SDS011;10018;51.230;7.860;2023-04-15T06:49:54;16.60;;;11.27;;
19733;SDS011;10018;51.230;7.860;2023-04-15T06:52:22;18.30;;;11.47;;
19733;SDS011;10018;51.230;7.860;2023-04-15T06:54:47;21.03;;;11.30;;
19733;SDS011;10018;51.230;7.860;2023-04-15T06:57:13;23.17;;;11.73;;
19733;SDS011;10018;51.230;7.860;2023-04-15T06:59:38;19.73;;;11.10;;
19733;SDS011;10018;51.230;7.860;2023-04-15T07:02:04;20.20;;;11.57;;
19733;SDS011;10018;51.230;7.860;2023-04-15T07:04:31;21.30;;;11.67;;
19733;SDS011;10018;51.230;7.860;2023-04-15T07:06:59;20.60;;;11.60;;
19733;SDS011;10018;51.230;7.860;2023-04-15T07:09:26;19.03;;;11.50;;
19733;SDS011;10018;51.230;7.860;2023-04-15T07:11:51;18.00;;;11.70;;
19733;SDS011;10018;51.230;7.860;2023-04-15T07:14:17;18.67;;;11.60;;
19733;SDS011;10018;51.230;7.860;2023-04-15T07:16:45;23.37;;;11.10;;
19733;SDS011;10018;51.230;7.860;2023-04-15T07:19:11;20.10;;;11.73;;
19733;SDS011;10018;51.230;7.860;2023-04-15T07:21:36;19.93;;;11.53;;
19733;SDS011;10018;51.230;7.860;2023-04-15T07:24:02;20.90;;;11.17;;
19733;SDS011;10018;51.230;7.860;2023-04-15T07:26:28;24.17;;;11.37;;
19733;SDS011;10018;51.230;7.860;2023-04-15T07:28:55;20.93;;;12.07;;
19733;SDS011;10018;51.230;7.860;2023-04-15T07:31:23;24.53;;;11.60;;
19733;SDS011;10018;51.230;7.860;2023-04-15T07:33:49;19.93;;;11.97;;
19733;SDS011;10018;51.230;7.860;2023-04-15T07:36:15;18.43;;;11.57;;
19733;SDS011;10018;51.230;7.860;2023-04-15T07:38:40;21.87;;;12.90;;
19733;SDS011;10018;51.230;7.860;2023-04-15T07:41:11;21.07;;;12.00;;
19733;SDS011;10018;51.230;7.860;2023-04-15T07:43:36;21.07;;;12.17;;
19733;SDS011;10018;51.230;7.860;2023-04-15T07:46:02;21.43;;;12.17;;
19733;SDS011;10018;51.230;7.860;2023-04-15T07:48:28;18.43;;;11.20;;
19733;SDS011;10018;51.230;7.860;2023-04-15T07:50:58;17.13;;;11.37;;
19733;SDS011;10018;51.230;7.860;2023-04-15T07:53:24;19.63;;;11.00;;
19733;SDS011;10018;51.230;7.860;2023-04-15T07:55:50;18.73;;;11.27;;
19733;SDS011;10018;51.230;7.860;2023-04-15T07:58:16;16.30;;;10.90;;
19733;SDS011;10018;51.230;7.860;2023-04-15T08:00:41;18.43;;;11.50;;
19733;SDS011;10018;51.230;7.860;2023-04-15T08:03:07;16.07;;;10.30;;
19733;SDS011;10018;51.230;7.860;2023-04-15T08:05:35;18.57;;;12.23;;
19733;SDS011;10018;51.230;7.860;2023-04-15T08:08:00;17.50;;;10.77;;
19733;SDS011;10018;51.230;7.860;2023-04-15T08:10:27;17.23;;;11.27;;
19733;SDS011;10018;51.230;7.860;2023-04-15T08:12:55;19.33;;;11.70;;
19733;SDS011;10018;51.230;7.860;2023-04-15T08:15:21;18.23;;;11.50;;
19733;SDS011;10018;51.230;7.860;2023-04-15T08:17:47;15.47;;;10.70;;
19733;SDS011;10018;51.230;7.860;2023-04-15T08:20:13;17.07;;;11.27;;
19733;SDS011;10018;51.230;7.860;2023-04-15T08:22:38;15.40;;;9.83;;
19733;SDS011;10018;51.230;7.860;2023-04-15T08:25:04;16.13;;;9.33;;
19733;SDS011;10018;51.230;7.860;2023-04-15T08:27:30;15.43;;;10.50;;
19733;SDS011;10018;51.230;7.860;2023-04-15T08:29:56;14.43;;;9.40;;
19733;SDS011;10018;51.230;7.860;2023-04-15T08:32:22;13.87;;;9.07;;
19733;SDS011;10018;51.230;7.860;2023-04-15T08:34:50;16.77;;;9.53;;
19733;SDS011;10018;51.230;7.860;2023-04-15T08:37:15;16.20;;;9.00;;
19733;SDS011;10018;51.230;7.860;2023-04-15T08:39:41;13.90;;;8.93;;
19733;SDS011;10018;51.230;7.860;2023-04-15T08:42:16;14.40;;;9.57;;
19733;SDS011;10018;51.230;7.860;2023-04-15T08:44:43;14.80;;;9.10;;
19733;SDS011;10018;51.230;7.860;2023-04-15T08:47:11;16.27;;;10.00;;
19733;SDS011;10018;51.230;7.860;2023-04-15T08:49:39;14.03;;;9.17;;
19733;SDS011;10018;51.230;7.860;2023-04-15T08:52:05;14.00;;;8.87;;
19733;SDS011;10018;51.230;7.860;2023-04-15T08:54:33;18.53;;;10.23;;
19733;SDS011;10018;51.230;7.860;2023-04-15T08:56:59;14.40;;;8.60;;
19733;SDS011;10018;51.230;7.860;2023-04-15T08:59:29;13.53;;;8.63;;
19733;SDS011;10018;51.230;7.860;2023-04-15T09:01:55;12.20;;;8.00;;
19733;SDS011;10018;51.230;7.860;2023-04-15T09:04:22;27.63;;;11.40;;
19733;SDS011;10018;51.230;7.860;2023-04-15T09:06:47;14.53;;;8.63;;
19733;SDS011;10018;51.230;7.860;2023-04-15T09:09:13;11.73;;;8.33;;
19733;SDS011;10018;51.230;7.860;2023-04-15T09:11:38;11.97;;;8.30;;
19733;SDS011;10018;51.230;7.860;2023-04-15T09:14:04;13.97;;;9.30;;
19733;SDS011;10018;51.230;7.860;2023-04-15T09:16:30;13.47;;;8.50;;
19733;SDS011;10018;51.230;7.860;2023-04-15T09:18:55;11.43;;;7.93;;
19733;SDS011;10018;51.230;7.860;2023-04-15T09:21:23;13.93;;;8.47;;
19733;SDS011;10018;51.230;7.860;2023-04-15T09:23:55;14.63;;;8.67;;
19733;SDS011;10018;51.230;7.860;2023-04-15T09:26:44;12.23;;;8.57;;
19733;SDS011;10018;51.230;7.860;2023-04-15T09:29:09;12.07;;;8.50;;
19733;SDS011;10018;51.230;7.860;2023-04-15T09:31:37;13.80;;;8.57;;
19733;SDS011;10018;51.230;7.860;2023-04-15T09:34:04;13.50;;;8.57;;
19733;SDS011;10018;51.230;7.860;2023-04-15T09:39:11;16.83;;;10.37;;
19733;SDS011;10018;51.230;7.860;2023-04-15T09:41:40;24.43;;;12.10;;
19733;SDS011;10018;51.230;7.860;2023-04-15T09:44:05;13.63;;;9.17;;
19733;SDS011;10018;51.230;7.860;2023-04-15T09:46:40;15.70;;;9.73;;
19733;SDS011;10018;51.230;7.860;2023-04-15T09:49:07;13.40;;;9.50;;
19733;SDS011;10018;51.230;7.860;2023-04-15T09:51:34;14.80;;;10.73;;
19733;SDS011;10018;51.230;7.860;2023-04-15T09:54:00;16.27;;;11.43;;
19733;SDS011;10018;51.230;7.860;2023-04-15T09:56:31;16.23;;;11.00;;
19733;SDS011;10018;51.230;7.860;2023-04-15T09:59:01;17.87;;;12.60;;
19733;SDS011;10018;51.230;7.860;2023-04-15T10:01:27;20.53;;;12.43;;
19733;SDS011;10018;51.230;7.860;2023-04-15T10:03:53;17.20;;;12.03;;
19733;SDS011;10018;51.230;7.860;2023-04-15T10:06:22;32.00;;;12.33;;
19733;SDS011;10018;51.230;7.860;2023-04-15T10:08:50;33.33;;;13.77;;
19733;SDS011;10018;51.230;7.860;2023-04-15T10:11:16;18.53;;;11.97;;
19733;SDS011;10018;51.230;7.860;2023-04-15T10:13:43;17.27;;;11.67;;
19733;SDS011;10018;51.230;7.860;2023-04-15T10:16:11;16.93;;;12.03;;
19733;SDS011;10018;51.230;7.860;2023-04-15T10:18:44;17.13;;;11.77;;
19733;SDS011;10018;51.230;7.860;2023-04-15T10:21:11;17.03;;;11.77;;
19733;SDS011;10018;51.230;7.860;2023-04-15T10:23:38;15.23;;;10.90;;
19733;SDS011;10018;51.230;7.860;2023-04-15T10:26:04;16.47;;;11.60;;
19733;SDS011;10018;51.230;7.860;2023-04-15T10:28:33;16.17;;;11.70;;
19733;SDS011;10018;51.230;7.860;2023-04-15T10:30:59;19.60;;;13.37;;
19733;SDS011;10018;51.230;7.860;2023-04-15T10:33:25;16.30;;;12.27;;
19733;SDS011;10018;51.230;7.860;2023-04-15T10:35:53;17.23;;;11.20;;
19733;SDS011;10018;51.230;7.860;2023-04-15T10:38:40;16.37;;;11.10;;
19733;SDS011;10018;51.230;7.860;2023-04-15T10:46:23;16.23;;;11.87;;
19733;SDS011;10018;51.230;7.860;2023-04-15T10:49:09;16.33;;;11.47;;
19733;SDS011;10018;51.230;7.860;2023-04-15T10:51:40;19.30;;;12.13;;
19733;SDS011;10018;51.230;7.860;2023-04-15T10:54:30;20.27;;;12.57;;
19733;SDS011;10018;51.230;7.860;2023-04-15T10:59:32;18.00;;;11.93;;
19733;SDS011;10018;51.230;7.860;2023-04-15T11:02:03;18.17;;;12.10;;
19733;SDS011;10018;51.230;7.860;2023-04-15T11:07:38;17.23;;;11.60;;
19733;SDS011;10018;51.230;7.860;2023-04-15T11:12:45;17.67;;;11.97;;
19733;SDS011;10018;51.230;7.860;2023-04-15T11:15:26;16.83;;;11.73;;
19733;SDS011;10018;51.230;7.860;2023-04-15T11:17:56;18.60;;;12.20;;
19733;SDS011;10018;51.230;7.860;2023-04-15T11:20:24;14.47;;;9.50;;
19733;SDS011;10018;51.230;7.860;2023-04-15T11:22:53;15.97;;;10.27;;
19733;SDS011;10018;51.230;7.860;2023-04-15T11:25:25;14.70;;;10.17;;
19733;SDS011;10018;51.230;7.860;2023-04-15T11:27:54;15.23;;;10.13;;
19733;SDS011;10018;51.230;7.860;2023-04-15T11:32:50;15.73;;;10.20;;
19733;SDS011;10018;51.230;7.860;2023-04-15T11:35:23;12.77;;;8.97;;
19733;SDS011;10018;51.230;7.860;2023-04-15T11:37:52;16.00;;;9.67;;
19733;SDS011;10018;51.230;7.860;2023-04-15T11:40:23;13.67;;;9.10;;
19733;SDS011;10018;51.230;7.860;2023-04-15T11:43:03;11.37;;;7.67;;
19733;SDS011;10018;51.230;7.860;2023-04-15T11:45:53;12.03;;;8.00;;
19733;SDS011;10018;51.230;7.860;2023-04-15T11:48:21;10.90;;;7.67;;
19733;SDS011;10018;51.230;7.860;2023-04-15T11:50:55;12.47;;;7.63;;
19733;SDS011;10018;51.230;7.860;2023-04-15T11:53:43;9.87;;;6.70;;
19733;SDS011;10018;51.230;7.860;2023-04-15T11:56:30;10.67;;;6.47;;
19733;SDS011;10018;51.230;7.860;2023-04-15T11:58:56;10.73;;;6.50;;
19733;SDS011;10018;51.230;7.860;2023-04-15T12:01:44;9.10;;;6.03;;
19733;SDS011;10018;51.230;7.860;2023-04-15T12:04:15;11.10;;;7.17;;
19733;SDS011;10018;51.230;7.860;2023-04-15T12:06:44;8.70;;;5.50;;
19733;SDS011;10018;51.230;7.860;2023-04-15T12:14:12;10.00;;;6.03;;
19733;SDS011;10018;51.230;7.860;2023-04-15T12:16:45;8.40;;;5.47;;
19733;SDS011;10018;51.230;7.860;2023-04-15T12:19:15;9.53;;;5.90;;
19733;SDS011;10018;51.230;7.860;2023-04-15T12:21:50;9.43;;;5.03;;
19733;SDS011;10018;51.230;7.860;2023-04-15T12:24:21;8.20;;;5.13;;
19733;SDS011;10018;51.230;7.860;2023-04-15T12:26:48;8.53;;;5.00;;
19733;SDS011;10018;51.230;7.860;2023-04-15T12:29:24;7.63;;;4.83;;
19733;SDS011;10018;51.230;7.860;2023-04-15T12:31:52;7.87;;;4.73;;
19733;SDS011;10018;51.230;7.860;2023-04-15T12:34:33;6.80;;;4.17;;
19733;SDS011;10018;51.230;7.860;2023-04-15T12:37:04;7.57;;;4.47;;
19733;SDS011;10018;51.230;7.860;2023-04-15T12:39:33;7.13;;;4.60;;
19733;SDS011;10018;51.230;7.860;2023-04-15T12:42:00;7.63;;;4.70;;
19733;SDS011;10018;51.230;7.860;2023-04-15T12:44:27;8.83;;;5.33;;
19733;SDS011;10018;51.230;7.860;2023-04-15T12:46:52;8.37;;;5.40;;
19733;SDS011;10018;51.230;7.860;2023-04-15T12:49:21;7.70;;;4.93;;
19733;SDS011;10018;51.230;7.860;2023-04-15T12:51:48;9.43;;;5.10;;
19733;SDS011;10018;51.230;7.860;2023-04-15T12:54:15;8.27;;;4.90;;
19733;SDS011;10018;51.230;7.860;2023-04-15T12:56:42;7.53;;;4.80;;
19733;SDS011;10018;51.230;7.860;2023-04-15T12:59:08;7.17;;;4.07;;
19733;SDS011;10018;51.230;7.860;2023-04-15T13:01:33;8.70;;;4.90;;
19733;SDS011;10018;51.230;7.860;2023-04-15T13:03:59;7.17;;;4.47;;
19733;SDS011;10018;51.230;7.860;2023-04-15T13:06:25;6.13;;;3.67;;
19733;SDS011;10018;51.230;7.860;2023-04-15T13:08:50;6.23;;;4.13;;
19733;SDS011;10018;51.230;7.860;2023-04-15T13:11:19;6.50;;;3.83;;
19733;SDS011;10018;51.230;7.860;2023-04-15T13:13:45;8.37;;;4.63;;
19733;SDS011;10018;51.230;7.860;2023-04-15T13:16:11;8.73;;;5.00;;
19733;SDS011;10018;51.230;7.860;2023-04-15T13:18:36;7.27;;;4.70;;
19733;SDS011;10018;51.230;7.860;2023-04-15T13:21:02;7.70;;;4.70;;
19733;SDS011;10018;51.230;7.860;2023-04-15T13:23:28;7.83;;;4.30;;
19733;SDS011;10018;51.230;7.860;2023-04-15T13:25:53;6.80;;;4.23;;
19733;SDS011;10018;51.230;7.860;2023-04-15T13:28:19;7.47;;;5.00;;
19733;SDS011;10018;51.230;7.860;2023-04-15T13:30:44;6.97;;;4.70;;
19733;SDS011;10018;51.230;7.860;2023-04-15T13:33:11;7.00;;;4.33;;
19733;SDS011;10018;51.230;7.860;2023-04-15T13:35:36;7.27;;;4.43;;
19733;SDS011;10018;51.230;7.860;2023-04-15T13:38:02;7.50;;;5.20;;
19733;SDS011;10018;51.230;7.860;2023-04-15T13:40:27;5.93;;;4.30;;
19733;SDS011;10018;51.230;7.860;2023-04-15T13:42:53;8.20;;;4.77;;
19733;SDS011;10018;51.230;7.860;2023-04-15T13:45:18;6.63;;;4.33;;
19733;SDS011;10018;51.230;7.860;2023-04-15T13:47:44;6.37;;;4.30;;
19733;SDS011;10018;51.230;7.860;2023-04-15T13:50:10;6.87;;;4.70;;
19733;SDS011;10018;51.230;7.860;2023-04-15T13:52:36;6.83;;;4.50;;
19733;SDS011;10018;51.230;7.860;2023-04-15T13:55:02;7.90;;;4.57;;
19733;SDS011;10018;51.230;7.860;2023-04-15T13:57:28;7.60;;;4.80;;
19733;SDS011;10018;51.230;7.860;2023-04-15T13:59:53;6.60;;;4.40;;
19733;SDS011;10018;51.230;7.860;2023-04-15T14:02:20;6.90;;;4.30;;
19733;SDS011;10018;51.230;7.860;2023-04-15T14:04:47;6.87;;;4.20;;
19733;SDS011;10018;51.230;7.860;2023-04-15T14:07:12;7.03;;;4.50;;
19733;SDS011;10018;51.230;7.860;2023-04-15T14:09:38;7.80;;;4.50;;
19733;SDS011;10018;51.230;7.860;2023-04-15T14:12:04;6.13;;;4.57;;
19733;SDS011;10018;51.230;7.860;2023-04-15T14:14:33;6.73;;;4.60;;
19733;SDS011;10018;51.230;7.860;2023-04-15T14:16:58;7.03;;;4.37;;
19733;SDS011;10018;51.230;7.860;2023-04-15T14:19:24;7.47;;;4.60;;
19733;SDS011;10018;51.230;7.860;2023-04-15T14:21:54;8.70;;;5.40;;
19733;SDS011;10018;51.230;7.860;2023-04-15T14:24:19;7.53;;;4.90;;
19733;SDS011;10018;51.230;7.860;2023-04-15T14:26:45;8.00;;;4.47;;
19733;SDS011;10018;51.230;7.860;2023-04-15T14:29:11;6.43;;;4.60;;
19733;SDS011;10018;51.230;7.860;2023-04-15T14:31:36;7.77;;;4.90;;
19733;SDS011;10018;51.230;7.860;2023-04-15T14:34:04;12.07;;;7.80;;
19733;SDS011;10018;51.230;7.860;2023-04-15T14:36:30;14.93;;;9.03;;
19733;SDS011;10018;51.230;7.860;2023-04-15T14:38:56;13.23;;;8.50;;
19733;SDS011;10018;51.230;7.860;2023-04-15T14:41:22;11.77;;;7.40;;
19733;SDS011;10018;51.230;7.860;2023-04-15T14:43:48;14.97;;;8.73;;
19733;SDS011;10018;51.230;7.860;2023-04-15T14:46:13;11.93;;;7.40;;
19733;SDS011;10018;51.230;7.860;2023-04-15T14:48:39;9.00;;;6.20;;
19733;SDS011;10018;51.230;7.860;2023-04-15T14:51:05;13.53;;;9.47;;
19733;SDS011;10018;51.230;7.860;2023-04-15T14:53:34;8.27;;;6.30;;
19733;SDS011;10018;51.230;7.860;2023-04-15T14:55:59;9.13;;;6.53;;